createdAt,value
2022-08-22T00:01:18.774Z,17.66
2022-08-22T00:03:11.076Z,17.49
2022-08-22T00:03:11.173Z,18.65
2022-08-22T00:03:58.547Z,17.69
2022-08-22T00:06:54.593Z,17.69
2022-08-22T00:09:46.435Z,17.64
2022-08-22T00:12:25.100Z,17.61
2022-08-22T00:15:01.348Z,17.59
2022-08-22T00:17:45.136Z,17.56
2022-08-22T00:20:32.599Z,17.58
2022-08-22T00:23:12.536Z,17.58
2022-08-22T00:25:54.682Z,17.57
2022-08-22T00:28:29.801Z,17.55
2022-08-22T00:31:16.153Z,17.54
2022-08-22T00:33:50.326Z,17.56
2022-08-22T00:36:25.872Z,17.46
2022-08-22T00:39:04.379Z,17.49
2022-08-22T00:41:38.949Z,17.51
2022-08-22T00:44:47.526Z,17.49
2022-08-22T00:47:17.587Z,17.46
2022-08-22T00:49:56.806Z,17.34
2022-08-22T00:52:32.548Z,17.31
2022-08-22T00:55:34.928Z,17.31
2022-08-22T00:58:40.364Z,17.34
2022-08-22T01:01:11.795Z,17.36
2022-08-22T01:03:44.526Z,17.42
2022-08-22T01:06:59.038Z,17.24
2022-08-22T01:09:32.983Z,17.22
2022-08-22T01:12:09.581Z,17.17
2022-08-22T01:15:06.486Z,17.17
2022-08-22T01:17:45.068Z,17.16
2022-08-22T01:20:46.300Z,17.11
2022-08-22T01:23:37.182Z,17.02
2022-08-22T01:26:22.556Z,16.95
2022-08-22T01:29:29.460Z,16.89
2022-08-22T01:32:22.419Z,16.85
2022-08-22T01:35:46.343Z,16.83
2022-08-22T01:39:03.443Z,16.77
2022-08-22T01:41:41.368Z,16.68
2022-08-22T01:44:34.406Z,16.62
2022-08-22T01:47:05.006Z,16.58
2022-08-22T01:49:34.577Z,16.52
2022-08-22T01:52:24.782Z,16.50
2022-08-22T01:54:58.571Z,16.44
2022-08-22T01:57:26.628Z,16.39
2022-08-22T01:59:59.324Z,16.32
2022-08-22T02:02:48.343Z,16.28
2022-08-22T02:05:31.812Z,16.24
2022-08-22T02:08:40.734Z,16.26
2022-08-22T02:11:11.897Z,16.30
2022-08-22T02:13:47.860Z,16.30
2022-08-22T02:16:33.415Z,16.29
2022-08-22T02:19:00.356Z,16.27
2022-08-22T02:21:42.344Z,16.19
2022-08-22T02:24:19.274Z,16.13
2022-08-22T02:26:51.783Z,16.09
2022-08-22T02:29:33.814Z,16.07
2022-08-22T02:32:08.593Z,16.06
2022-08-22T02:34:49.607Z,16.04
2022-08-22T02:37:38.137Z,16.00
2022-08-22T02:40:08.703Z,15.98
2022-08-22T02:42:40.315Z,15.96
2022-08-22T02:45:34.639Z,15.96
2022-08-22T02:48:11.438Z,15.95
2022-08-22T02:50:47.535Z,15.96
2022-08-22T02:53:21.729Z,15.90
2022-08-22T02:56:01.873Z,15.84
2022-08-22T02:58:44.136Z,15.81
2022-08-22T03:01:29.959Z,15.80
2022-08-22T03:04:44.503Z,15.77
2022-08-22T03:07:20.715Z,15.77
2022-08-22T03:09:59.506Z,15.80
2022-08-22T03:13:01.713Z,15.81
2022-08-22T03:15:49.308Z,15.82
2022-08-22T03:18:39.142Z,15.78
2022-08-22T03:21:31.135Z,15.71
2022-08-22T03:24:09.966Z,15.66
2022-08-22T03:26:42.817Z,15.65
2022-08-22T03:29:17.313Z,15.61
2022-08-22T03:32:08.889Z,15.58
2022-08-22T03:34:36.981Z,15.56
2022-08-22T03:37:21.045Z,15.57
2022-08-22T03:40:13.172Z,15.51
2022-08-22T03:43:09.016Z,15.49
2022-08-22T03:45:54.876Z,15.48
2022-08-22T03:49:07.041Z,15.50
2022-08-22T03:51:58.922Z,15.48
2022-08-22T03:54:47.988Z,15.51
2022-08-22T03:57:20.933Z,15.51
2022-08-22T03:59:57.462Z,15.50
2022-08-22T04:02:49.382Z,15.43
2022-08-22T04:05:45.408Z,15.38
2022-08-22T04:09:14.201Z,15.37
2022-08-22T04:12:18.328Z,15.34
2022-08-22T04:15:03.975Z,15.34
2022-08-22T04:17:31.477Z,15.31
2022-08-22T04:20:09.407Z,15.27
2022-08-22T04:22:48.946Z,15.28
2022-08-22T04:25:23.425Z,15.26
2022-08-22T04:28:11.247Z,15.23
2022-08-22T04:30:50.807Z,15.15
2022-08-22T04:33:49.828Z,15.12
2022-08-22T04:36:32.543Z,15.12
2022-08-22T04:39:13.835Z,15.16
2022-08-22T04:41:48.861Z,15.19
2022-08-22T04:44:35.888Z,15.30
2022-08-22T04:47:10.600Z,15.40
2022-08-22T04:49:40.825Z,15.50
2022-08-22T04:52:11.048Z,15.57
2022-08-22T04:54:57.483Z,15.67
2022-08-22T04:57:38.287Z,15.75
2022-08-22T05:00:09.146Z,15.83
2022-08-22T05:02:40.096Z,15.95
2022-08-22T05:05:13.445Z,15.99
2022-08-22T05:07:46.567Z,16.05
2022-08-22T05:10:23.234Z,16.05
2022-08-22T05:13:04.634Z,16.10
2022-08-22T05:15:35.935Z,16.13
2022-08-22T05:18:09.416Z,16.12
2022-08-22T05:20:39.471Z,16.24
2022-08-22T05:23:20.217Z,16.36
2022-08-22T05:25:51.186Z,16.46
2022-08-22T05:28:32.244Z,16.60
2022-08-22T05:31:02.756Z,16.63
2022-08-22T05:33:41.668Z,16.73
2022-08-22T05:36:13.871Z,16.81
2022-08-22T05:38:47.533Z,16.89
2022-08-22T05:41:23.772Z,16.99
2022-08-22T05:43:51.683Z,17.08
2022-08-22T05:46:27.086Z,17.18
2022-08-22T05:49:00.381Z,17.27
2022-08-22T05:51:37.625Z,17.36
2022-08-22T05:54:14.084Z,17.44
2022-08-22T05:57:00.412Z,17.51
2022-08-22T05:59:32.767Z,17.60
2022-08-22T06:02:08.592Z,17.64
2022-08-22T06:04:47.473Z,17.72
2022-08-22T06:07:33.659Z,17.75
2022-08-22T06:10:22.892Z,17.76
2022-08-22T06:13:14.083Z,17.80
2022-08-22T06:15:44.439Z,17.86
2022-08-22T06:18:21.031Z,17.88
2022-08-22T06:20:56.367Z,17.89
2022-08-22T06:23:49.922Z,17.91
2022-08-22T06:26:21.166Z,17.96
2022-08-22T06:28:55.058Z,18.00
2022-08-22T06:31:29.943Z,18.03
2022-08-22T06:34:17.707Z,18.06
2022-08-22T06:36:48.697Z,18.06
2022-08-22T06:39:31.297Z,18.10
2022-08-22T06:42:16.688Z,18.11
2022-08-22T06:45:08.313Z,18.11
2022-08-22T06:47:41.547Z,18.10
2022-08-22T06:50:14.835Z,18.12
2022-08-22T06:52:53.697Z,18.12
2022-08-22T06:55:22.910Z,18.11
2022-08-22T06:57:55.609Z,18.12
2022-08-22T07:00:23.241Z,18.12
2022-08-22T07:02:57.713Z,18.16
2022-08-22T07:05:29.461Z,18.20
2022-08-22T07:07:57.318Z,18.21
2022-08-22T07:10:25.101Z,18.24
2022-08-22T07:12:54.487Z,18.27
2022-08-22T07:15:51.639Z,18.30
2022-08-22T07:18:21.315Z,18.32
2022-08-22T07:20:54.978Z,18.32
2022-08-22T07:23:34.062Z,18.38
2022-08-22T07:26:13.532Z,18.41
2022-08-22T07:28:51.650Z,18.40
2022-08-22T07:31:58.127Z,18.45
2022-08-22T07:34:25.787Z,18.50
2022-08-22T07:37:38.835Z,18.57
2022-08-22T07:40:05.751Z,18.60
2022-08-22T07:43:26.276Z,18.73
2022-08-22T07:46:14.914Z,18.86
2022-08-22T07:49:09.566Z,18.97
2022-08-22T07:51:47.444Z,19.19
2022-08-22T07:54:19.673Z,19.37
2022-08-22T07:57:03.434Z,19.56
2022-08-22T07:59:33.423Z,19.79
2022-08-22T08:02:04.883Z,19.96
2022-08-22T08:04:40.005Z,20.08
2022-08-22T08:07:10.608Z,20.22
2022-08-22T08:09:46.664Z,20.39
2022-08-22T08:12:15.764Z,20.53
2022-08-22T08:14:45.468Z,20.58
2022-08-22T08:17:23.938Z,20.68
2022-08-22T08:19:52.287Z,20.77
2022-08-22T08:22:25.637Z,20.83
2022-08-22T08:24:57.264Z,20.91
2022-08-22T08:27:50.547Z,21.00
2022-08-22T08:30:40.897Z,21.15
2022-08-22T08:33:26.152Z,21.29
2022-08-22T08:36:06.135Z,21.41
2022-08-22T08:38:45.150Z,21.52
2022-08-22T08:41:38.667Z,21.58
2022-08-22T08:44:37.904Z,21.70
2022-08-22T08:47:42.999Z,21.85
2022-08-22T08:50:33.147Z,21.88
2022-08-22T08:52:59.968Z,21.97
2022-08-22T08:55:36.117Z,22.10
2022-08-22T08:58:21.569Z,22.16
2022-08-22T09:01:07.960Z,22.10
2022-08-22T09:03:51.375Z,22.04
2022-08-22T09:06:37.363Z,21.87
2022-08-22T09:09:24.956Z,21.98
2022-08-22T09:12:17.255Z,22.31
2022-08-22T09:15:14.348Z,22.50
2022-08-22T09:17:53.577Z,22.61
2022-08-22T09:20:39.625Z,22.54
2022-08-22T09:23:17.022Z,22.46
2022-08-22T09:25:59.672Z,22.30
2022-08-22T09:28:46.241Z,22.25
2022-08-22T09:31:51.479Z,22.30
2022-08-22T09:34:35.429Z,22.38
2022-08-22T09:37:32.262Z,22.60
2022-08-22T09:40:37.843Z,22.76
2022-08-22T09:43:21.270Z,22.86
2022-08-22T09:46:07.781Z,22.96
2022-08-22T09:49:06.913Z,23.16
2022-08-22T09:51:45.172Z,23.13
2022-08-22T09:54:31.563Z,23.12
2022-08-22T09:57:19.112Z,23.29
2022-08-22T10:00:14.991Z,23.57
2022-08-22T10:03:07.894Z,23.64
2022-08-22T10:05:45.507Z,23.78
2022-08-22T10:08:26.370Z,23.89
2022-08-22T10:11:14.535Z,23.89
2022-08-22T10:14:00.806Z,23.90
2022-08-22T10:16:31.200Z,23.96
2022-08-22T10:19:20.260Z,23.95
2022-08-22T10:22:31.663Z,23.95
2022-08-22T10:25:07.963Z,23.84
2022-08-22T10:27:56.936Z,23.97
2022-08-22T10:30:36.613Z,24.16
2022-08-22T10:33:30.821Z,24.28
2022-08-22T10:36:05.002Z,24.31
2022-08-22T10:38:46.502Z,24.32
2022-08-22T10:41:30.286Z,24.42
2022-08-22T10:44:26.898Z,24.53
2022-08-22T10:47:01.194Z,24.34
2022-08-22T10:49:41.880Z,24.43
2022-08-22T10:52:15.649Z,24.47
2022-08-22T10:54:46.071Z,24.53
2022-08-22T10:57:41.822Z,24.90
2022-08-22T11:00:46.353Z,24.97
2022-08-22T11:03:26.452Z,24.81
2022-08-22T11:05:59.164Z,24.65
2022-08-22T11:08:45.188Z,24.83
2022-08-22T11:11:15.191Z,25.32
2022-08-22T11:13:50.612Z,25.69
2022-08-22T11:16:36.779Z,25.91
2022-08-22T11:19:15.632Z,25.66
2022-08-22T11:21:48.580Z,25.44
2022-08-22T11:24:55.693Z,25.76
2022-08-22T11:27:40.105Z,26.03
2022-08-22T11:30:18.483Z,26.22
2022-08-22T11:33:18.656Z,26.42
2022-08-22T11:36:36.742Z,26.56
2022-08-22T11:39:25.464Z,26.47
2022-08-22T11:42:15.157Z,26.95
2022-08-22T11:44:56.537Z,27.43
2022-08-22T11:47:30.377Z,27.64
2022-08-22T11:49:58.215Z,27.68
2022-08-22T11:52:25.542Z,27.55
2022-08-22T11:55:33.185Z,27.88
2022-08-22T11:58:05.279Z,28.36
2022-08-22T12:00:48.712Z,28.23
2022-08-22T12:03:35.465Z,27.77
2022-08-22T12:06:21.620Z,27.40
2022-08-22T12:08:51.284Z,27.15
2022-08-22T12:11:54.807Z,27.33
2022-08-22T12:14:31.100Z,27.98
2022-08-22T12:17:55.526Z,27.97
2022-08-22T12:20:39.546Z,27.34
2022-08-22T12:23:49.404Z,27.53
2022-08-22T12:27:00.053Z,27.08
2022-08-22T12:29:55.779Z,26.72
2022-08-22T12:32:56.653Z,27.42
2022-08-22T12:35:38.845Z,27.64
2022-08-22T12:38:38.249Z,27.65
2022-08-22T12:41:28.229Z,27.47
2022-08-22T12:44:17.440Z,27.43
2022-08-22T12:47:03.009Z,27.17
2022-08-22T12:50:02.142Z,27.19
2022-08-22T12:53:14.973Z,26.62
2022-08-22T12:56:25.259Z,26.31
2022-08-22T12:59:20.290Z,26.61
2022-08-22T13:01:51.484Z,26.56
2022-08-22T13:04:33.160Z,26.91
2022-08-22T13:07:08.949Z,27.35
2022-08-22T13:09:46.268Z,28.02
2022-08-22T13:12:26.210Z,28.38
2022-08-22T13:15:21.113Z,28.52
2022-08-22T13:17:51.902Z,29.07
2022-08-22T13:20:41.732Z,29.26
2022-08-22T13:23:20.334Z,29.28
2022-08-22T13:26:00.063Z,29.12
2022-08-22T13:28:31.660Z,28.91
2022-08-22T13:31:01.780Z,28.05
2022-08-22T13:33:36.862Z,27.20
2022-08-22T13:36:10.875Z,26.96
2022-08-22T13:38:50.010Z,27.00
2022-08-22T13:41:48.698Z,27.22
2022-08-22T13:44:31.519Z,27.78
2022-08-22T13:47:14.291Z,27.99
2022-08-22T13:49:46.978Z,27.75
2022-08-22T13:52:32.993Z,27.85
2022-08-22T13:55:19.934Z,27.92
2022-08-22T13:57:51.977Z,27.90
2022-08-22T14:00:28.825Z,27.79
2022-08-22T14:03:08.003Z,27.50
2022-08-22T14:05:47.804Z,27.48
2022-08-22T14:08:28.820Z,27.45
2022-08-22T14:11:02.157Z,27.57
2022-08-22T14:13:36.811Z,27.43
2022-08-22T14:16:10.390Z,27.57
2022-08-22T14:18:50.867Z,28.04
2022-08-22T14:21:45.547Z,28.42
2022-08-22T14:24:18.818Z,28.20
2022-08-22T14:26:57.972Z,27.70
2022-08-22T14:29:29.167Z,27.43
2022-08-22T14:32:12.699Z,27.31
2022-08-22T14:34:45.393Z,27.38
2022-08-22T14:37:24.201Z,27.22
2022-08-22T14:39:58.214Z,26.67
2022-08-22T14:42:30.394Z,26.63
2022-08-22T14:45:08.731Z,26.56
2022-08-22T14:48:14.194Z,26.94
2022-08-22T14:50:58.847Z,27.27
2022-08-22T14:53:30.202Z,27.03
2022-08-22T14:56:15.426Z,26.87
2022-08-22T14:58:58.200Z,26.77
2022-08-22T15:01:29.956Z,26.59
2022-08-22T15:04:07.955Z,26.59
2022-08-22T15:06:58.590Z,26.66
2022-08-22T15:09:31.580Z,26.55
2022-08-22T15:12:01.567Z,26.32
2022-08-22T15:14:51.887Z,26.19
2022-08-22T15:17:37.759Z,25.96
2022-08-22T15:20:38.237Z,25.85
2022-08-22T15:23:22.023Z,25.68
2022-08-22T15:26:17.005Z,25.75
2022-08-22T15:28:52.664Z,25.59
2022-08-22T15:31:21.459Z,25.54
2022-08-22T15:33:49.443Z,25.87
2022-08-22T15:36:26.985Z,26.38
2022-08-22T15:39:31.010Z,26.76
2022-08-22T15:41:59.867Z,26.91
2022-08-22T15:44:34.876Z,26.89
2022-08-22T15:47:09.553Z,27.14
2022-08-22T15:50:05.405Z,27.34
2022-08-22T15:52:59.751Z,26.87
2022-08-22T15:55:34.314Z,26.82
2022-08-22T15:58:20.704Z,27.20
2022-08-22T16:01:18.944Z,27.84
2022-08-22T16:04:14.466Z,28.41
2022-08-22T16:06:55.393Z,28.33
2022-08-22T16:09:43.482Z,28.14
2022-08-22T16:12:34.356Z,28.29
2022-08-22T16:15:05.835Z,28.19
2022-08-22T16:17:43.643Z,28.03
2022-08-22T16:20:19.698Z,28.08
2022-08-22T16:22:59.254Z,27.98
2022-08-22T16:25:50.275Z,28.15
2022-08-22T16:28:56.991Z,28.44
2022-08-22T16:31:23.931Z,28.72
2022-08-22T16:33:51.540Z,28.57
2022-08-22T16:36:37.077Z,28.37
2022-08-22T16:39:12.661Z,28.33
2022-08-22T16:41:43.780Z,28.27
2022-08-22T16:44:23.658Z,28.21
2022-08-22T16:46:52.992Z,28.00
2022-08-22T16:49:31.437Z,27.82
2022-08-22T16:52:26.317Z,27.63
2022-08-22T16:55:04.994Z,27.47
2022-08-22T16:57:59.390Z,27.19
2022-08-22T17:00:31.617Z,26.85
2022-08-22T17:03:27.318Z,26.66
2022-08-22T17:06:13.007Z,26.52
2022-08-22T17:09:17.595Z,26.38
2022-08-22T17:12:23.660Z,26.14
2022-08-22T17:15:11.088Z,25.96
2022-08-22T17:17:53.116Z,25.85
2022-08-22T17:20:47.984Z,25.77
2022-08-22T17:23:30.004Z,25.72
2022-08-22T17:26:12.042Z,25.72
2022-08-22T17:28:54.647Z,25.62
2022-08-22T17:31:27.819Z,25.57
2022-08-22T17:34:32.947Z,25.50
2022-08-22T17:37:24.143Z,25.46
2022-08-22T17:40:00.344Z,25.37
2022-08-22T17:42:51.873Z,25.23
2022-08-22T17:45:45.722Z,25.00
2022-08-22T17:48:26.720Z,24.83
2022-08-22T17:51:28.323Z,24.74
2022-08-22T17:54:14.423Z,24.52
2022-08-22T17:56:45.390Z,24.41
2022-08-22T17:59:21.408Z,24.29
2022-08-22T18:01:56.170Z,24.22
2022-08-22T18:04:59.138Z,24.11
2022-08-22T18:07:45.168Z,23.97
2022-08-22T18:10:19.671Z,23.81
2022-08-22T18:12:51.895Z,23.70
2022-08-22T18:15:34.280Z,23.55
2022-08-22T18:18:11.739Z,23.43
2022-08-22T18:21:10.611Z,23.30
2022-08-22T18:23:44.860Z,23.21
2022-08-22T18:26:36.423Z,23.13
2022-08-22T18:29:21.482Z,23.04
2022-08-22T18:32:00.477Z,22.99
2022-08-22T18:35:13.143Z,22.87
2022-08-22T18:37:58.036Z,22.74
2022-08-22T18:40:37.763Z,22.65
2022-08-22T18:43:28.356Z,22.53
2022-08-22T18:46:02.960Z,22.45
2022-08-22T18:48:30.351Z,22.41
2022-08-22T18:51:24.451Z,22.30
2022-08-22T18:54:03.889Z,22.24
2022-08-22T18:56:31.540Z,22.17
2022-08-22T18:59:06.106Z,22.09
2022-08-22T19:02:05.612Z,22.04
2022-08-22T19:04:41.731Z,21.99
2022-08-22T19:07:36.156Z,21.92
2022-08-22T19:10:05.801Z,21.87
2022-08-22T19:13:02.913Z,21.80
2022-08-22T19:15:45.041Z,21.77
2022-08-22T19:18:49.491Z,21.68
2022-08-22T19:21:39.955Z,21.63
2022-08-22T19:24:27.289Z,21.61
2022-08-22T19:27:20.199Z,21.58
2022-08-22T19:29:47.241Z,21.53
2022-08-22T19:32:46.102Z,21.46
2022-08-22T19:35:20.523Z,21.42
2022-08-22T19:38:02.595Z,21.34
2022-08-22T19:40:44.761Z,21.31
2022-08-22T19:43:42.353Z,21.26
2022-08-22T19:46:13.201Z,21.19
2022-08-22T19:48:50.043Z,21.17
2022-08-22T19:51:19.723Z,21.13
2022-08-22T19:53:56.954Z,21.09
2022-08-22T19:56:45.868Z,21.06
2022-08-22T19:59:20.083Z,20.98
2022-08-22T20:01:49.842Z,20.96
2022-08-22T20:04:35.375Z,20.93
2022-08-22T20:07:34.019Z,20.91
2022-08-22T20:10:39.674Z,20.85
2022-08-22T20:13:19.532Z,20.79
2022-08-22T20:16:43.124Z,20.78
2022-08-22T20:19:10.214Z,20.72
2022-08-22T20:21:46.447Z,20.70
2022-08-22T20:24:29.611Z,20.66
2022-08-22T20:27:15.629Z,20.61
2022-08-22T20:29:49.392Z,20.57
2022-08-22T20:32:19.567Z,20.54
2022-08-22T20:34:50.656Z,20.49
2022-08-22T20:37:56.179Z,20.46
2022-08-22T20:40:55.262Z,20.40
2022-08-22T20:43:35.724Z,20.35
2022-08-22T20:46:12.779Z,20.32
2022-08-22T20:48:43.854Z,20.26
2022-08-22T20:51:16.110Z,20.25
2022-08-22T20:53:51.514Z,20.23
2022-08-22T20:56:48.838Z,20.21
2022-08-22T20:59:29.895Z,20.20
2022-08-22T21:02:35.579Z,20.17
2022-08-22T21:05:06.766Z,20.14
2022-08-22T21:07:35.425Z,20.10
2022-08-22T21:10:44.709Z,20.09
2022-08-22T21:13:28.481Z,20.05
2022-08-22T21:15:58.092Z,20.02
2022-08-22T21:18:41.131Z,20.01
2022-08-22T21:21:18.140Z,20.02
2022-08-22T21:23:56.412Z,19.98
2022-08-22T21:26:32.620Z,19.97
2022-08-22T21:29:14.849Z,19.94
2022-08-22T21:31:46.001Z,19.95
2022-08-22T21:34:19.584Z,19.93
2022-08-22T21:36:48.336Z,19.91
2022-08-22T21:39:25.035Z,19.89
2022-08-22T21:42:15.649Z,19.87
2022-08-22T21:44:54.144Z,19.83
2022-08-22T21:47:32.764Z,19.77
2022-08-22T21:49:59.560Z,19.74
2022-08-22T21:52:36.222Z,19.74
2022-08-22T21:55:21.803Z,19.73
2022-08-22T21:58:12.762Z,19.71
2022-08-22T22:01:02.462Z,19.70
2022-08-22T22:03:38.362Z,19.67
2022-08-22T22:06:06.754Z,19.68
2022-08-22T22:08:33.765Z,19.70
2022-08-22T22:11:08.423Z,19.70
2022-08-22T22:13:35.746Z,19.68
2022-08-22T22:16:03.118Z,19.64
2022-08-22T22:18:31.618Z,19.63
2022-08-22T22:20:58.709Z,19.58
2022-08-22T22:23:26.295Z,19.56
2022-08-22T22:25:55.793Z,19.53
2022-08-22T22:28:32.668Z,19.49
2022-08-22T22:30:59.671Z,19.45
2022-08-22T22:33:29.792Z,19.40
2022-08-22T22:36:01.252Z,19.36
2022-08-22T22:38:28.223Z,19.33
2022-08-22T22:40:55.120Z,19.29
2022-08-22T22:43:22.194Z,19.27
2022-08-22T22:45:49.215Z,19.19
2022-08-22T22:48:22.271Z,19.15
2022-08-22T22:50:52.789Z,19.11
2022-08-22T22:53:25.833Z,19.06
2022-08-22T22:56:09.320Z,19.04
2022-08-22T22:58:37.665Z,19.00
2022-08-22T23:01:18.371Z,18.97
2022-08-22T23:03:45.442Z,18.94
2022-08-22T23:06:14.401Z,18.91
2022-08-22T23:08:41.519Z,18.86
2022-08-22T23:11:11.414Z,18.81
2022-08-22T23:13:39.564Z,18.76
2022-08-22T23:16:09.392Z,18.73
2022-08-22T23:18:36.425Z,18.74
2022-08-22T23:21:30.520Z,18.73
2022-08-22T23:23:59.379Z,18.72
2022-08-22T23:26:27.155Z,18.66
2022-08-22T23:28:54.227Z,18.66
2022-08-22T23:31:37.686Z,18.62
2022-08-22T23:34:17.639Z,18.59
2022-08-22T23:36:47.552Z,18.56
2022-08-22T23:39:16.351Z,18.53
2022-08-22T23:41:46.454Z,18.50
2022-08-22T23:44:15.900Z,18.48
2022-08-22T23:46:44.025Z,18.45
2022-08-22T23:49:11.943Z,18.43
2022-08-22T23:51:39.603Z,18.41
2022-08-22T23:54:07.089Z,18.40
2022-08-22T23:56:39.949Z,18.36
2022-08-22T23:59:09.981Z,18.34
